createdAt,value
2022-11-24T00:01:08.884Z,23.45
2022-11-24T00:03:36.290Z,21.83
2022-11-24T00:06:05.764Z,19.85
2022-11-24T00:08:32.985Z,20.83
2022-11-24T00:11:08.268Z,21.52
2022-11-24T00:13:36.346Z,21.17
2022-11-24T00:16:13.574Z,20.27
2022-11-24T00:18:49.489Z,26.27
2022-11-24T00:21:18.693Z,26.92
2022-11-24T00:23:50.551Z,25.02
2022-11-24T00:26:23.741Z,23.35
2022-11-24T00:28:52.900Z,20.10
2022-11-24T00:31:32.132Z,20.67
2022-11-24T00:34:01.681Z,21.85
2022-11-24T00:36:33.193Z,20.42
2022-11-24T00:39:03.976Z,21.75
2022-11-24T00:41:34.674Z,20.30
2022-11-24T00:44:01.777Z,20.30
2022-11-24T00:46:29.427Z,30.02
2022-11-24T00:48:57.324Z,23.48
2022-11-24T00:51:28.029Z,22.23
2022-11-24T00:53:57.302Z,21.17
2022-11-24T00:56:28.759Z,26.77
2022-11-24T00:58:55.816Z,20.95
2022-11-24T01:01:26.446Z,23.80
2022-11-24T01:03:55.276Z,20.75
2022-11-24T01:06:26.048Z,26.58
2022-11-24T01:08:53.548Z,24.45
2022-11-24T01:11:23.811Z,20.98
2022-11-24T01:13:57.836Z,21.35
2022-11-24T01:16:31.492Z,18.83
2022-11-24T01:18:58.799Z,17.52
2022-11-24T01:21:26.251Z,19.50
2022-11-24T01:23:53.406Z,19.05
2022-11-24T01:26:22.068Z,17.55
2022-11-24T01:28:54.586Z,23.00
2022-11-24T01:31:22.238Z,19.38
2022-11-24T01:33:49.660Z,19.90
2022-11-24T01:36:17.635Z,21.10
2022-11-24T01:38:44.893Z,21.77
2022-11-24T01:41:20.849Z,20.25
2022-11-24T01:43:48.767Z,20.48
2022-11-24T01:46:28.101Z,24.98
2022-11-24T01:49:26.219Z,23.65
2022-11-24T01:52:18.904Z,24.08
2022-11-24T01:54:51.795Z,27.33
2022-11-24T01:57:26.919Z,23.90
2022-11-24T01:59:59.814Z,25.48
2022-11-24T02:02:30.444Z,27.08
2022-11-24T02:05:03.034Z,24.17
2022-11-24T02:07:30.951Z,23.67
2022-11-24T02:10:10.044Z,28.27
2022-11-24T02:12:43.467Z,25.77
2022-11-24T02:15:13.113Z,24.98
2022-11-24T02:17:40.359Z,28.88
2022-11-24T02:20:10.727Z,23.63
2022-11-24T02:23:15.546Z,26.85
2022-11-24T02:25:51.044Z,22.90
2022-11-24T02:30:51.166Z,23.92
2022-11-24T02:33:20.904Z,26.10
2022-11-24T02:35:48.009Z,21.10
2022-11-24T02:38:18.234Z,25.30
2022-11-24T02:40:49.277Z,22.35
2022-11-24T02:43:22.369Z,23.60
2022-11-24T02:45:49.425Z,21.67
2022-11-24T02:48:17.149Z,19.42
2022-11-24T02:50:44.299Z,20.25
2022-11-24T02:53:11.664Z,20.05
2022-11-24T02:55:38.757Z,19.13
2022-11-24T02:58:06.073Z,21.50
2022-11-24T03:00:33.178Z,19.60
2022-11-24T03:03:00.569Z,22.65
2022-11-24T03:05:27.588Z,24.73
2022-11-24T03:07:55.028Z,21.50
2022-11-24T03:10:22.061Z,24.73
2022-11-24T03:12:49.372Z,24.73
2022-11-24T03:15:16.420Z,21.65
2022-11-24T03:17:43.734Z,23.15
2022-11-24T03:20:14.170Z,25.40
2022-11-24T03:22:43.680Z,25.75
2022-11-24T03:25:10.685Z,28.45
2022-11-24T03:27:40.340Z,26.17
2022-11-24T03:30:08.218Z,25.45
2022-11-24T03:32:35.575Z,30.63
2022-11-24T03:35:02.676Z,27.95
2022-11-24T03:37:32.493Z,30.58
2022-11-24T03:39:59.589Z,31.65
2022-11-24T03:42:27.190Z,25.42
2022-11-24T03:44:54.178Z,29.15
2022-11-24T03:47:21.485Z,30.90
2022-11-24T03:49:48.448Z,26.40
2022-11-24T03:52:15.780Z,27.08
2022-11-24T03:54:43.042Z,28.92
2022-11-24T03:57:13.111Z,28.17
2022-11-24T03:59:42.378Z,25.25
2022-11-24T04:02:12.338Z,28.27
2022-11-24T04:04:39.552Z,26.35
2022-11-24T04:07:08.008Z,26.67
2022-11-24T04:09:35.038Z,26.15
2022-11-24T04:12:20.868Z,23.95
2022-11-24T04:14:47.818Z,23.92
2022-11-24T04:17:15.180Z,26.85
2022-11-24T04:19:44.502Z,26.30
2022-11-24T04:22:11.777Z,25.90
2022-11-24T04:24:38.798Z,23.73
2022-11-24T04:27:06.156Z,23.55
2022-11-24T04:29:33.107Z,25.17
2022-11-24T04:32:00.493Z,23.48
2022-11-24T04:34:27.518Z,25.27
2022-11-24T04:36:54.985Z,27.60
2022-11-24T04:39:24.651Z,23.42
2022-11-24T04:41:53.552Z,24.75
2022-11-24T04:44:20.553Z,24.58
2022-11-24T04:46:48.097Z,23.75
2022-11-24T04:49:17.570Z,27.08
2022-11-24T04:51:45.086Z,24.20
2022-11-24T04:54:13.412Z,29.40
2022-11-24T04:56:42.773Z,28.48
2022-11-24T04:59:15.659Z,26.50
2022-11-24T05:01:44.512Z,25.75
2022-11-24T05:04:13.417Z,25.38
2022-11-24T05:06:41.072Z,26.98
2022-11-24T05:09:08.476Z,26.48
2022-11-24T05:11:35.704Z,27.27
2022-11-24T05:14:02.671Z,26.00
2022-11-24T05:16:29.901Z,28.30
2022-11-24T05:18:56.866Z,26.23
2022-11-24T05:21:27.885Z,26.42
2022-11-24T05:23:54.814Z,26.85
2022-11-24T05:26:22.161Z,27.85
2022-11-24T05:28:49.270Z,28.58
2022-11-24T05:31:21.308Z,25.90
2022-11-24T05:33:48.460Z,31.52
2022-11-24T05:36:34.457Z,27.83
2022-11-24T05:39:03.875Z,27.80
2022-11-24T05:41:31.185Z,23.50
2022-11-24T05:43:58.136Z,26.98
2022-11-24T05:46:25.352Z,26.40
2022-11-24T05:48:52.617Z,29.27
2022-11-24T05:51:19.889Z,27.02
2022-11-24T05:53:46.898Z,26.48
2022-11-24T05:56:14.118Z,24.45
2022-11-24T05:58:42.545Z,25.77
2022-11-24T06:01:09.828Z,29.25
2022-11-24T06:03:36.920Z,30.85
2022-11-24T06:06:06.565Z,25.20
2022-11-24T06:08:36.764Z,26.00
2022-11-24T06:11:18.598Z,23.10
2022-11-24T06:13:46.836Z,24.50
2022-11-24T06:16:14.924Z,21.75
2022-11-24T06:18:42.419Z,25.70
2022-11-24T06:21:11.568Z,23.23
2022-11-24T06:23:39.970Z,19.83
2022-11-24T06:26:09.715Z,22.70
2022-11-24T06:28:36.821Z,19.88
2022-11-24T06:31:05.891Z,18.83
2022-11-24T06:33:37.922Z,16.35
2022-11-24T06:36:08.436Z,18.73
2022-11-24T06:38:36.793Z,17.80
2022-11-24T06:41:06.925Z,18.35
2022-11-24T06:43:34.736Z,15.10
2022-11-24T06:46:05.452Z,13.80
2022-11-24T06:48:32.941Z,16.95
2022-11-24T06:51:01.705Z,13.27
2022-11-24T06:53:38.052Z,14.20
2022-11-24T06:56:13.827Z,13.27
2022-11-24T06:58:51.296Z,12.57
2022-11-24T07:01:27.284Z,16.57
2022-11-24T07:03:57.201Z,13.85
2022-11-24T07:06:25.867Z,12.20
2022-11-24T07:08:53.063Z,15.00
2022-11-24T07:11:22.951Z,10.35
2022-11-24T07:13:55.113Z,13.32
2022-11-24T07:16:28.799Z,11.35
2022-11-24T07:18:58.902Z,9.40
2022-11-24T07:21:27.752Z,9.93
2022-11-24T07:23:57.182Z,10.40
2022-11-24T07:26:25.509Z,8.63
2022-11-24T07:28:52.869Z,7.68
2022-11-24T07:31:24.984Z,8.00
2022-11-24T07:33:54.024Z,9.77
2022-11-24T07:36:21.946Z,7.28
2022-11-24T07:38:49.299Z,11.20
2022-11-24T07:41:19.712Z,8.98
2022-11-24T07:43:47.804Z,7.43
2022-11-24T07:46:17.771Z,9.65
2022-11-24T07:48:46.006Z,8.50
2022-11-24T07:51:13.769Z,8.45
2022-11-24T07:53:41.170Z,8.77
2022-11-24T07:56:09.588Z,12.77
2022-11-24T07:58:37.732Z,9.15
2022-11-24T08:01:18.667Z,9.32
2022-11-24T08:03:49.645Z,9.45
2022-11-24T08:06:30.510Z,8.10
2022-11-24T08:09:03.377Z,7.53
2022-11-24T08:11:31.694Z,10.13
2022-11-24T08:13:58.813Z,7.38
2022-11-24T08:16:26.251Z,6.63
2022-11-24T08:18:55.192Z,11.82
2022-11-24T08:21:23.694Z,6.70
2022-11-24T08:23:54.985Z,6.97
2022-11-24T08:26:23.101Z,7.63
2022-11-24T08:28:54.357Z,6.50
2022-11-24T08:31:22.125Z,7.68
2022-11-24T08:33:49.183Z,9.30
2022-11-24T08:36:19.326Z,8.52
2022-11-24T08:38:46.815Z,8.13
2022-11-24T08:41:16.312Z,8.18
2022-11-24T08:43:43.634Z,9.10
2022-11-24T08:46:17.466Z,9.02
2022-11-24T08:51:20.532Z,11.07
2022-11-24T08:53:47.585Z,8.85
2022-11-24T08:56:23.233Z,9.32
2022-11-24T08:58:54.134Z,10.93
2022-11-24T09:01:21.993Z,12.63
2022-11-24T09:03:51.241Z,12.05
2022-11-24T09:06:24.946Z,9.18
2022-11-24T09:08:54.505Z,12.13
2022-11-24T09:11:22.542Z,8.88
2022-11-24T09:13:50.075Z,13.20
2022-11-24T09:16:23.669Z,12.18
2022-11-24T09:19:02.496Z,15.93
2022-11-24T09:21:32.376Z,12.88
2022-11-24T09:23:59.368Z,12.60
2022-11-24T09:26:30.247Z,12.70
2022-11-24T09:28:59.088Z,13.75
2022-11-24T09:31:29.656Z,16.75
2022-11-24T09:33:57.403Z,12.00
2022-11-24T09:36:25.382Z,13.68
2022-11-24T09:38:52.670Z,9.40
2022-11-24T09:41:42.131Z,10.30
2022-11-24T09:44:31.905Z,11.85
2022-11-24T09:47:15.845Z,15.18
2022-11-24T09:49:59.579Z,9.77
2022-11-24T09:52:37.920Z,11.10
2022-11-24T09:55:14.047Z,14.88
2022-11-24T09:57:45.108Z,14.30
2022-11-24T10:00:13.591Z,13.55
2022-11-24T10:02:40.912Z,11.82
2022-11-24T10:05:15.515Z,12.73
2022-11-24T10:07:54.266Z,12.48
2022-11-24T10:10:32.626Z,13.32
2022-11-24T10:13:14.933Z,10.35
2022-11-24T10:15:48.061Z,9.93
2022-11-24T10:18:37.712Z,9.45
2022-11-24T10:21:39.164Z,9.13
2022-11-24T10:24:18.810Z,9.38
2022-11-24T10:26:55.713Z,11.02
2022-11-24T10:29:39.508Z,9.65
2022-11-24T10:32:38.514Z,9.02
2022-11-24T10:35:40.661Z,13.73
2022-11-24T10:38:20.065Z,9.13
2022-11-24T10:41:08.875Z,9.52
2022-11-24T10:43:36.135Z,7.47
2022-11-24T10:46:11.576Z,8.63
2022-11-24T10:48:45.863Z,9.32
2022-11-24T10:51:36.313Z,9.88
2022-11-24T10:54:21.656Z,10.50
2022-11-24T10:56:52.339Z,9.75
2022-11-24T10:59:25.385Z,10.43
2022-11-24T11:01:53.156Z,9.73
2022-11-24T11:04:21.861Z,7.43
2022-11-24T11:06:49.301Z,15.02
2022-11-24T11:09:19.905Z,10.57
2022-11-24T11:11:53.264Z,10.15
2022-11-24T11:14:32.361Z,10.77
2022-11-24T11:16:59.746Z,9.27
2022-11-24T11:19:51.873Z,11.88
2022-11-24T11:22:29.060Z,7.60
2022-11-24T11:25:27.887Z,5.65
2022-11-24T11:28:21.957Z,5.85
2022-11-24T11:31:20.580Z,5.82
2022-11-24T11:34:26.678Z,8.18
2022-11-24T11:37:00.647Z,6.72
2022-11-24T11:39:37.897Z,6.72
2022-11-24T11:43:00.703Z,11.38
2022-11-24T11:45:29.032Z,7.57
2022-11-24T11:48:04.241Z,6.15
2022-11-24T11:51:21.716Z,7.30
2022-11-24T11:53:54.583Z,7.68
2022-11-24T11:56:24.145Z,8.35
2022-11-24T11:59:06.581Z,7.60
2022-11-24T12:01:55.781Z,7.63
2022-11-24T12:04:38.293Z,7.57
2022-11-24T12:07:41.162Z,8.00
2022-11-24T12:10:29.439Z,7.25
2022-11-24T12:13:23.636Z,8.95
2022-11-24T12:15:54.251Z,9.82
2022-11-24T12:18:57.615Z,8.20
2022-11-24T12:21:40.849Z,8.50
2022-11-24T12:24:14.032Z,8.50
2022-11-24T12:26:41.048Z,9.90
2022-11-24T12:29:28.669Z,11.18
2022-11-24T12:32:35.510Z,15.50
2022-11-24T12:35:37.721Z,13.48
2022-11-24T12:38:17.114Z,14.75
2022-11-24T12:44:50.847Z,9.60
2022-11-24T12:47:27.103Z,8.63
2022-11-24T12:50:14.830Z,10.10
2022-11-24T12:52:58.622Z,9.80
2022-11-24T12:55:29.104Z,10.98
2022-11-24T12:58:17.949Z,12.98
2022-11-24T13:01:44.955Z,14.07
2022-11-24T13:04:36.288Z,12.20
2022-11-24T13:07:11.274Z,11.68
2022-11-24T13:10:00.806Z,10.40
2022-11-24T13:12:28.075Z,14.48
2022-11-24T13:14:55.598Z,13.23
2022-11-24T13:17:50.311Z,11.63
2022-11-24T13:20:21.731Z,11.32
2022-11-24T13:23:03.123Z,10.65
2022-11-24T13:25:33.085Z,9.23
2022-11-24T13:28:06.753Z,12.25
2022-11-24T13:30:34.149Z,11.70
2022-11-24T13:33:16.897Z,11.88
2022-11-24T13:36:02.455Z,24.00
2022-11-24T13:38:51.696Z,8.38
2022-11-24T13:41:36.739Z,12.25
2022-11-24T13:44:16.249Z,9.98
2022-11-24T13:47:04.789Z,9.18
2022-11-24T13:49:39.866Z,12.00
2022-11-24T13:52:45.081Z,8.38
2022-11-24T13:55:12.206Z,15.73
2022-11-24T13:57:53.275Z,8.07
2022-11-24T14:00:32.332Z,16.13
2022-11-24T14:03:04.465Z,14.23
2022-11-24T14:05:47.025Z,13.13
2022-11-24T14:08:26.239Z,12.15
2022-11-24T14:10:55.043Z,14.68
2022-11-24T14:13:22.573Z,9.55
2022-11-24T14:16:10.161Z,11.13
2022-11-24T14:18:39.735Z,9.02
2022-11-24T14:21:22.310Z,11.27
2022-11-24T14:23:58.576Z,17.00
2022-11-24T14:26:37.298Z,16.50
2022-11-24T14:29:13.700Z,16.88
2022-11-24T14:31:41.162Z,15.13
2022-11-24T14:34:11.597Z,15.00
2022-11-24T14:36:42.600Z,9.93
2022-11-24T14:39:15.544Z,11.65
2022-11-24T14:41:51.555Z,13.57
2022-11-24T14:44:24.377Z,37.72
2022-11-24T14:47:00.960Z,46.10
2022-11-24T14:49:32.987Z,18.58
2022-11-24T14:52:10.151Z,19.20
2022-11-24T14:54:55.522Z,23.42
2022-11-24T14:57:37.215Z,23.48
2022-11-24T15:00:21.958Z,27.02
2022-11-24T15:02:55.374Z,27.88
2022-11-24T15:05:25.082Z,11.10
2022-11-24T15:08:02.605Z,12.25
2022-11-24T15:11:04.133Z,16.17
2022-11-24T15:13:37.445Z,12.02
2022-11-24T15:16:21.032Z,14.13
2022-11-24T15:18:55.561Z,16.58
2022-11-24T15:21:36.979Z,20.90
2022-11-24T15:24:15.161Z,14.65
2022-11-24T15:26:48.039Z,17.65
2022-11-24T15:29:15.361Z,14.25
2022-11-24T15:31:46.419Z,19.02
2022-11-24T15:34:18.817Z,25.38
2022-11-24T15:36:48.643Z,26.17
2022-11-24T15:39:15.824Z,25.65
2022-11-24T15:41:43.206Z,21.25
2022-11-24T15:44:10.448Z,23.50
2022-11-24T15:46:38.862Z,24.67
2022-11-24T15:49:06.825Z,17.75
2022-11-24T15:51:43.903Z,15.15
2022-11-24T15:54:20.630Z,15.48
2022-11-24T15:56:47.991Z,20.38
2022-11-24T15:59:20.166Z,20.77
2022-11-24T16:01:50.085Z,20.88
2022-11-24T16:04:17.642Z,14.32
2022-11-24T16:06:45.443Z,13.35
2022-11-24T16:09:15.742Z,14.00
2022-11-24T16:11:43.439Z,12.52
2022-11-24T16:14:10.777Z,13.35
2022-11-24T16:16:40.788Z,11.07
2022-11-24T16:19:10.140Z,10.80
2022-11-24T16:21:39.983Z,12.93
2022-11-24T16:24:13.325Z,39.35
2022-11-24T16:26:41.177Z,12.65
2022-11-24T16:29:08.439Z,10.73
2022-11-24T16:31:39.252Z,12.38
2022-11-24T16:34:11.348Z,15.23
2022-11-24T16:36:39.150Z,13.65
2022-11-24T16:39:06.578Z,25.05
2022-11-24T16:41:34.657Z,21.15
2022-11-24T16:44:04.606Z,17.25
2022-11-24T16:46:32.530Z,22.33
2022-11-24T16:49:03.648Z,18.67
2022-11-24T16:51:34.653Z,17.02
2022-11-24T16:54:03.683Z,21.58
2022-11-24T16:56:32.130Z,16.38
2022-11-24T16:58:59.220Z,17.85
2022-11-24T17:01:27.275Z,20.63
2022-11-24T17:03:54.721Z,33.60
2022-11-24T17:06:22.793Z,21.17
2022-11-24T17:08:50.425Z,19.08
2022-11-24T17:11:24.014Z,18.15
2022-11-24T17:13:52.569Z,22.58
2022-11-24T17:16:34.818Z,17.55
2022-11-24T17:19:05.592Z,18.90
2022-11-24T17:21:33.401Z,33.90
2022-11-24T17:24:05.648Z,39.13
2022-11-24T17:26:34.427Z,63.67
2022-11-24T17:29:05.911Z,60.50
2022-11-24T17:31:35.873Z,54.80
2022-11-24T17:34:07.087Z,32.38
2022-11-24T17:36:35.368Z,28.95
2022-11-24T17:39:05.171Z,16.65
2022-11-24T17:41:34.499Z,17.90
2022-11-24T17:44:02.632Z,14.95
2022-11-24T17:46:31.702Z,18.33
2022-11-24T17:48:59.498Z,16.02
2022-11-24T17:51:29.337Z,19.00
2022-11-24T17:53:58.080Z,18.15
2022-11-24T17:56:28.184Z,19.02
2022-11-24T17:58:58.498Z,18.67
2022-11-24T18:01:31.849Z,16.73
2022-11-24T18:04:00.554Z,16.35
2022-11-24T18:06:33.947Z,17.27
2022-11-24T18:09:01.513Z,14.88
2022-11-24T18:11:32.282Z,17.65
2022-11-24T18:14:03.303Z,13.43
2022-11-24T18:16:34.023Z,19.00
2022-11-24T18:19:09.091Z,35.90
2022-11-24T18:21:39.915Z,56.08
2022-11-24T18:24:11.944Z,37.20
2022-11-24T18:26:42.214Z,26.35
2022-11-24T18:29:12.622Z,15.57
2022-11-24T18:31:42.161Z,12.82
2022-11-24T18:34:10.217Z,14.55
2022-11-24T18:36:38.915Z,17.05
2022-11-24T18:39:09.234Z,16.45
2022-11-24T18:41:37.654Z,8.80
2022-11-24T18:44:10.585Z,12.68
2022-11-24T18:46:40.324Z,13.70
2022-11-24T18:49:10.859Z,11.50
2022-11-24T18:51:38.806Z,12.07
2022-11-24T18:54:06.710Z,9.90
2022-11-24T18:56:34.957Z,11.60
2022-11-24T18:59:03.817Z,12.60
2022-11-24T19:01:32.989Z,14.88
2022-11-24T19:04:03.157Z,11.95
2022-11-24T19:06:34.429Z,12.10
2022-11-24T19:09:07.846Z,14.43
2022-11-24T19:11:43.474Z,14.70
2022-11-24T19:14:16.750Z,11.32
2022-11-24T19:16:46.970Z,21.05
2022-11-24T19:19:16.424Z,16.17
2022-11-24T19:21:45.439Z,14.32
2022-11-24T19:24:16.309Z,13.48
2022-11-24T19:26:46.089Z,12.93
2022-11-24T19:29:14.272Z,15.15
2022-11-24T19:31:44.075Z,16.33
2022-11-24T19:34:20.752Z,12.20
2022-11-24T19:36:48.607Z,11.95
2022-11-24T19:39:17.982Z,15.65
2022-11-24T19:41:49.483Z,13.65
2022-11-24T19:44:18.731Z,12.25
2022-11-24T19:46:47.555Z,16.85
2022-11-24T19:49:18.241Z,14.93
2022-11-24T19:51:47.729Z,13.32
2022-11-24T19:54:16.354Z,13.50
2022-11-24T19:56:49.151Z,15.73
2022-11-24T19:59:17.319Z,20.70
2022-11-24T20:01:48.826Z,20.90
2022-11-24T20:04:21.114Z,15.35
2022-11-24T20:06:49.744Z,14.32
2022-11-24T20:09:21.453Z,15.02
2022-11-24T20:11:49.633Z,10.30
2022-11-24T20:14:20.640Z,12.23
2022-11-24T20:16:48.957Z,14.20
2022-11-24T20:19:18.858Z,14.82
2022-11-24T20:21:50.785Z,14.32
2022-11-24T20:24:25.440Z,11.88
2022-11-24T20:27:00.252Z,13.02
2022-11-24T20:29:30.334Z,12.02
2022-11-24T20:32:03.442Z,10.65
2022-11-24T20:34:33.363Z,9.95
2022-11-24T20:37:02.262Z,12.50
2022-11-24T20:39:30.136Z,8.75
2022-11-24T20:41:58.518Z,9.50
2022-11-24T20:44:28.285Z,7.95
2022-11-24T20:47:00.231Z,8.55
2022-11-24T20:49:29.193Z,9.52
2022-11-24T20:51:57.949Z,9.07
2022-11-24T20:54:26.413Z,7.95
2022-11-24T20:56:54.705Z,10.13
2022-11-24T20:59:24.684Z,7.75
2022-11-24T21:01:56.859Z,9.52
2022-11-24T21:04:26.995Z,10.77
2022-11-24T21:06:55.882Z,9.07
2022-11-24T21:09:25.006Z,7.43
2022-11-24T21:11:52.880Z,8.88
2022-11-24T21:14:20.529Z,9.40
2022-11-24T21:16:48.685Z,8.30
2022-11-24T21:19:18.776Z,9.93
2022-11-24T21:21:49.373Z,11.93
2022-11-24T21:24:19.487Z,9.30
2022-11-24T21:26:48.078Z,9.63
2022-11-24T21:29:19.511Z,10.13
2022-11-24T21:31:50.122Z,10.10
2022-11-24T21:34:20.579Z,7.88
2022-11-24T21:36:48.280Z,11.93
2022-11-24T21:39:16.290Z,7.78
2022-11-24T21:41:48.488Z,8.48
2022-11-24T21:44:15.652Z,12.63
2022-11-24T21:46:48.098Z,8.27
2022-11-24T21:49:17.031Z,9.60
2022-11-24T21:51:47.656Z,8.27
2022-11-24T21:54:14.642Z,8.85
2022-11-24T21:56:42.274Z,8.98
2022-11-24T21:59:09.405Z,11.13
2022-11-24T22:01:36.988Z,8.55
2022-11-24T22:04:04.183Z,5.13
2022-11-24T22:06:33.328Z,6.22
2022-11-24T22:09:00.416Z,7.55
2022-11-24T22:11:27.697Z,7.05
2022-11-24T22:13:57.071Z,6.80
2022-11-24T22:16:26.866Z,9.88
2022-11-24T22:18:54.139Z,7.57
2022-11-24T22:21:24.363Z,9.63
2022-11-24T22:23:52.789Z,5.65
2022-11-24T22:26:22.881Z,6.45
2022-11-24T22:28:50.273Z,5.35
2022-11-24T22:31:22.891Z,3.90
2022-11-24T22:33:50.899Z,5.03
2022-11-24T22:36:23.105Z,5.22
2022-11-24T22:38:58.277Z,5.78
2022-11-24T22:41:26.094Z,5.20
2022-11-24T22:43:53.707Z,5.40
2022-11-24T22:46:23.693Z,5.10
2022-11-24T22:48:55.194Z,6.88
2022-11-24T22:51:28.286Z,5.47
2022-11-24T22:53:57.521Z,7.95
2022-11-24T22:56:27.990Z,6.28
2022-11-24T22:58:57.914Z,5.53
2022-11-24T23:01:26.965Z,5.13
2022-11-24T23:03:54.731Z,7.22
2022-11-24T23:06:29.124Z,4.75
2022-11-24T23:08:57.558Z,6.10
2022-11-24T23:11:34.808Z,6.63
2022-11-24T23:14:05.319Z,5.00
2022-11-24T23:16:32.825Z,6.97
2022-11-24T23:19:02.259Z,10.45
2022-11-24T23:21:32.389Z,5.22
2022-11-24T23:24:03.746Z,6.43
2022-11-24T23:26:37.050Z,4.70
2022-11-24T23:29:05.427Z,6.28
2022-11-24T23:31:33.494Z,6.30
2022-11-24T23:34:02.613Z,5.93
2022-11-24T23:36:31.354Z,7.20
2022-11-24T23:39:03.942Z,7.70
2022-11-24T23:41:31.981Z,6.53
2022-11-24T23:43:59.477Z,8.25
2022-11-24T23:46:28.241Z,7.10
2022-11-24T23:48:56.441Z,4.85
2022-11-24T23:51:32.160Z,5.78
2022-11-24T23:54:01.578Z,6.70
2022-11-24T23:56:32.680Z,7.15
2022-11-24T23:59:01.960Z,7.43
